Flight Track Log - Related Links

Times and Time Zones

All times are in EDT time to prevent confusion due to time zone crossing. See the N214WL flight status page for this flight to view local times or setup timezone preferences in your user account.

Time Position Orientation Groundspeed Altitude Reporting Facility
EDT Latitude Longitude Course Direction KTS MPH feet Rate Location/Type
Fri 11:16:55 AM 37.7300 -97.2264 91° East 136 157 1,900  Level Kansas City Center
Fri 11:18:01 AM 37.7292 -97.1633 76° East 189 217 3,800 1,785 Climbing Kansas City Center
Fri 11:18:56 AM 37.7411 -97.1033 78° East 196 226 5,500 1,565 Climbing Kansas City Center
Fri 11:19:56 AM 37.7531 -97.0303 78° East 205 236 6,800 1,244 Climbing Kansas City Center
Fri 11:21:11 AM 37.7694 -96.9361 77° East 264 304 8,300 1,378 Climbing Kansas City Center
Fri 11:22:11 AM 37.7836 -96.8553 78° East 244 281 9,900 1,500 Climbing Kansas City Center
Fri 11:23:11 AM 37.7978 -96.7742 82° East 238 274 11,300 1,500 Climbing Kansas City Center
Fri 11:24:11 AM 37.8078 -96.6878 73° East 238 274 12,900 1,500 Climbing Kansas City Center
Fri 11:25:11 AM 37.8281 -96.6014 79° East 244 281 14,300 1,550 Climbing Kansas City Center
Fri 11:26:11 AM 37.8422 -96.5125 80° East 244 281 16,000 1,550 Climbing Kansas City Center
Fri 11:27:11 AM 37.8539 -96.4261 79° East 244 281 17,400 1,250 Climbing Kansas City Center
Fri 11:28:11 AM 37.8678 -96.3342 84° East 255 293 18,500 1,050 Climbing Kansas City Center
Fri 11:29:11 AM 37.8756 -96.2372 81° East 260 299 19,500 1,000 Climbing Kansas City Center
Fri 11:30:11 AM 37.8875 -96.1375 82° East 271 312 20,500 1,050 Climbing Kansas City Center
Fri 11:31:11 AM 37.8992 -96.0297 81° East 278 320 21,600 1,050 Climbing Kansas City Center
Fri 11:32:11 AM 37.9108 -95.9325 83° East 278 320 22,600 950 Climbing Kansas City Center
Fri 11:33:11 AM 37.9203 -95.8406 81° East 278 320 23,500 1,000 Climbing Kansas City Center
Fri 11:34:11 AM 37.9339 -95.7331 88° East 278 320 24,600 1,050 Climbing Kansas City Center
Fri 11:35:11 AM 37.9369 -95.6331 86° East 283 326 25,600 1,000 Climbing Kansas City Center
Fri 11:36:11 AM 37.9422 -95.5356 82° East 288 331 26,600 700 Climbing Kansas City Center
Fri 11:37:11 AM 37.9511 -95.4514 87° East 273 314 27,000 200 Climbing Kansas City Center
Fri 11:38:11 AM 37.9561 -95.3331 86° East 295 339 27,000  Level Kansas City Center
Fri 11:39:11 AM 37.9631 -95.2144 87° East 316 364 27,000  Level Kansas City Center
Fri 11:40:11 AM 37.9681 -95.1039 85° East 316 364 27,000  Level Kansas City Center
Fri 11:41:11 AM 37.9747 -94.9958 87° East 330 380 27,000  Level Kansas City Center
Fri 11:42:11 AM 37.9794 -94.8669 84° East 330 380 27,000  Level Kansas City Center
Fri 11:43:11 AM 37.9900 -94.7406 84° East 336 387 27,000  Level Kansas City Center
Fri 11:44:11 AM 38.0006 -94.6219 77° East 336 387 27,000  Level Kansas City Center
Fri 11:45:11 AM 38.0194 -94.5139 81° East 341 392 27,000  Level Kansas City Center
Fri 11:46:11 AM 38.0361 -94.3822 83° East 341 392 27,000  Level Kansas City Center
Fri 11:47:11 AM 38.0483 -94.2633 79° East 353 406 27,000  Level Kansas City Center
Fri 11:48:11 AM 38.0647 -94.1525 78° East 353 406 27,000  Level Kansas City Center
Fri 11:49:11 AM 38.0872 -94.0231 82° East 347 399 27,000  Level Kansas City Center
Fri 11:50:11 AM 38.1014 -93.9017 82° East 347 399 27,000  Level Kansas City Center
Fri 11:51:11 AM 38.1153 -93.7803 82° East 347 399 27,000  Level Kansas City Center
Fri 11:52:11 AM 38.1292 -93.6586 82° East 347 399 27,000  Level Kansas City Center
Fri 11:53:11 AM 38.1428 -93.5397 82° East 352 405 27,000  Level Kansas City Center
Fri 11:54:11 AM 38.1564 -93.4181 83° East 347 399 27,000  Level Kansas City Center
Fri 11:55:11 AM 38.1678 -93.2936 81° East 352 405 27,000  Level Kansas City Center
Fri 11:56:11 AM 38.1831 -93.1719 82° East 352 405 27,000  Level Kansas City Center
Fri 11:57:11 AM 38.1961 -93.0528 82° East 352 405 27,000  Level Kansas City Center
Fri 11:58:11 AM 38.2092 -92.9283 82° East 352 405 27,000  Level Kansas City Center
Fri 11:59:11 AM 38.2222 -92.8039 85° East 352 405 27,000  Level Kansas City Center
Fri 12:00:11 PM 38.2308 -92.6819 84° East 352 405 27,000  Level Kansas City Center
Fri 12:01:11 PM 38.2414 -92.5603 84° East 352 405 27,000  Level Kansas City Center
Fri 12:02:11 PM 38.2517 -92.4356 84° East 352 405 27,000  Level Kansas City Center
Fri 12:03:11 PM 38.2603 -92.3244 85° East 352 405 27,000  Level Kansas City Center
Fri 12:04:11 PM 38.2683 -92.1997 85° East 352 405 27,000  Level Kansas City Center
Fri 12:05:11 PM 38.2764 -92.0753 83° East 352 405 27,000  Level Kansas City Center
Fri 12:06:11 PM 38.2883 -91.9531 84° East 352 405 27,000  Level Kansas City Center
Fri 12:07:11 PM 38.2983 -91.8339 81° East 352 405 27,000  Level Kansas City Center
Fri 12:08:11 PM 38.3142 -91.7114 75° East 352 405 27,000  Level Kansas City Center
Fri 12:09:11 PM 38.3383 -91.5942 77° East 352 405 27,000  Level Kansas City Center
Fri 12:10:11 PM 38.3606 -91.4739 75° East 352 405 27,000  Level Kansas City Center
Fri 12:11:11 PM 38.3847 -91.3592 75° East 342 394 27,000  Level Kansas City Center
Fri 12:12:11 PM 38.4086 -91.2414 76° East 334 384 27,000  Level Kansas City Center
Fri 12:13:11 PM 38.4342 -91.1106 77° East 339 390 27,000  Level Kansas City Center
Fri 12:14:11 PM 38.4558 -90.9928 75° East 339 390 27,000  Level Kansas City Center
Fri 12:15:11 PM 38.4794 -90.8775 76° East 332 382 27,000  Level Kansas City Center
Fri 12:16:11 PM 38.5028 -90.7597 76° East 338 389 27,000  Level Kansas City Center
Fri 12:17:11 PM 38.5244 -90.6472 77° East 338 389 27,000  Level Kansas City Center
Fri 12:18:11 PM 38.5456 -90.5292 75° East 333 383 27,000  Level Kansas City Center
Fri 12:19:11 PM 38.5689 -90.4164 77° East 333 383 27,000  Level Kansas City Center
Fri 12:20:11 PM 38.5897 -90.3011 76° East 333 383 27,000  Level Kansas City Center
Fri 12:21:11 PM 38.6128 -90.1853 76° East 333 383 27,000  Level Kansas City Center
Fri 12:22:11 PM 38.6356 -90.0672 74° East 333 383 27,000  Level Kansas City Center
Fri 12:23:11 PM 38.6606 -89.9539 77° East 333 383 27,000  Level Kansas City Center
Fri 12:24:11 PM 38.6794 -89.8489 78° East 333 383 27,000  Level Kansas City Center
Fri 12:25:11 PM 38.7014 -89.7200 78° East 338 389 27,000  Level Kansas City Center
Fri 12:26:11 PM 38.7181 -89.6178 76° East 333 383 27,000  Level Kansas City Center
Fri 12:27:11 PM 38.7419 -89.4908 79° East 333 383 27,000  Level Kansas City Center
Fri 12:28:11 PM 38.7583 -89.3861 75° East 328 377 27,000  Level Kansas City Center
Fri 12:29:11 PM 38.7844 -89.2617 79° East 328 377 27,000  Level Kansas City Center
Fri 12:30:11 PM 38.8003 -89.1539 77° East 328 377 27,000  Level Kansas City Center
Fri 12:31:11 PM 38.8239 -89.0269 76° East 328 377 27,000  Level Kansas City Center
Fri 12:32:11 PM 38.8458 -88.9158 78° East 328 377 27,000  Level Kansas City Center
Fri 12:33:11 PM 38.8653 -88.7972 77° East 328 377 27,000  Level Kansas City Center
Fri 12:34:11 PM 38.8850 -88.6861 77° East 323 372 27,000 -492 Level Kansas City Center
Fri 12:36:14 PM 38.9281 -88.4425 81° East 337 388 25,500 -829 Descending Indianapolis Center
Fri 12:37:12 PM 38.9439 -88.3100 81° East 347 399 24,500 -763 Descending Indianapolis Center
Fri 12:38:12 PM 38.9594 -88.1856 81° East 352 405 24,000 -248 Descending Indianapolis Center
Fri 12:39:13 PM 38.9744 -88.0661 80° East 352 405 24,000 -347 Level Indianapolis Center
Fri 12:40:13 PM 38.9917 -87.9417 82° East 347 399 23,300 -750 Descending Indianapolis Center
Fri 12:41:13 PM 39.0044 -87.8194 81° East 347 399 22,500 -864 Descending Indianapolis Center
Fri 12:42:11 PM 39.0192 -87.6975 80° East 347 399 21,600 -814 Descending Indianapolis Center
Fri 12:43:11 PM 39.0336 -87.5886 61° Northeast 347 399 20,900 -992 Descending Indianapolis Center
Fri 12:44:12 PM 39.0808 -87.4789 51° Northeast 341 392 19,600 -1,438 Descending Indianapolis Center
Fri 12:45:12 PM 39.1447 -87.3753 47° Northeast 329 379 18,000 -1,525 Descending Indianapolis Center
Fri 12:46:14 PM 39.2081 -87.2875 50° Northeast 334 384 16,500 -1,664 Descending Indianapolis Center
Fri 12:47:11 PM 39.2672 -87.1967 49° Northeast 334 384 14,700 -1,780 Descending Indianapolis Center
Fri 12:48:12 PM 39.3242 -87.1111 49° Northeast 324 373 13,000 -1,672 Descending Indianapolis Center
Fri 12:49:13 PM 39.3808 -87.0253 63° Northeast 319 367 11,300 -1,000 Descending Indianapolis Center
Fri 12:50:12 PM 39.4147 -86.9381 75° East 295 339 11,000 -400 Descending Indianapolis Center
Fri 12:51:13 PM 39.4342 -86.8422 75° East 268 308 10,500 -694 Descending Indianapolis Center
Fri 12:52:13 PM 39.4533 -86.7492 77° East 268 308 9,600 -763 Descending Indianapolis Center
Fri 12:53:11 PM 39.4681 -86.6689 54° Northeast 263 303 9,000 -305 Descending Indianapolis Center
Fri 12:54:11 PM 39.5117 -86.5903 47° Northeast 257 296 9,000  Level Indianapolis Center
Fri 12:55:12 PM 39.5636 -86.5169 38° Northeast 262 302 9,000 -248 Level Indianapolis Center
Fri 12:56:12 PM 39.6192 -86.4600 27° Northeast 261 300 8,500 -793 Descending Indianapolis Center
Fri 12:57:13 PM 39.6808 -86.4194 29° Northeast 247 284 7,400 -744 Descending Indianapolis Center
Fri 12:58:13 PM 39.7422 -86.3758 32° Northeast 236 272 7,000 -198 Descending Indianapolis Center
Fri 12:59:14 PM 39.7997 -86.3297 56° Northeast 231 266 7,000  Level Indianapolis Center
Fri 01:00:28 PM 39.8500 -86.2333 37° Northeast 242 278 7,000  Level Indianapolis TRACON
Fri 01:01:27 PM 39.9000 -86.1833 30° Northeast 241 277 7,000  Level Indianapolis TRACON
Fri 01:02:28 PM 39.9667 -86.1333 27° Northeast 236 272 7,000  Level Indianapolis TRACON
Fri 01:03:28 PM 40.0167 -86.1000 75° East 234 269 7,000 -550 Level Indianapolis TRACON
Fri 01:04:28 PM 40.0333 -86.0167 123° Southeast 253 291 5,900 -1,000 Descending Indianapolis TRACON
Fri 01:05:28 PM 40.0000 -85.9500 123° Southeast 241 277 5,000 -900 Descending Indianapolis TRACON

Login

Don't have an account? Register now (free) for customized features, flight alerts, and more!